Time;durP1;ratioP1;P1;durP2;ratioP2;P2;SDS_P1;SDS_P2;PMS_P1;PMS_P2;Temp;Humidity;BMP_temperature;BMP_pressure;BME280_temperature;BME280_humidity;BME280_pressure;Samples;Min_cycle;Max_cycle;Signal;HPM_P1;HPM_P2
2023/04/17 00:00:23;;;;;;;8.83;7.60;;;;;;;10.13;72.72;102495.78;6203443;28;20232;-77
2023/04/17 00:03:52;;;;;;;9.13;8.20;;;;;;;10.14;72.76;102500.09;6228254;28;20248;-78
2023/04/17 00:07:13;;;;;;;8.70;6.97;;;;;;;10.09;72.85;102502.25;6232214;28;20314;-78
2023/04/17 00:10:33;;;;;;;9.30;7.67;;;;;;;10.10;72.73;102510.03;6223320;28;20999;-76
2023/04/17 00:13:54;;;;;;;9.63;7.33;;;;;;;10.08;73.15;102501.41;6221349;28;20233;-76
2023/04/17 00:17:15;;;;;;;10.77;7.87;;;;;;;10.03;72.97;102508.03;6211226;28;20233;-79
2023/04/17 00:20:37;;;;;;;9.47;7.27;;;;;;;9.98;73.42;102508.38;6198784;28;20328;-76
2023/04/17 00:23:58;;;;;;;6.87;5.93;;;;;;;9.94;73.68;102512.22;6235025;28;20252;-77
2023/04/17 00:27:19;;;;;;;10.57;8.80;;;;;;;9.88;73.69;102505.66;6210332;28;20695;-77
2023/04/17 00:30:40;;;;;;;9.50;8.33;;;;;;;9.88;74.11;102497.75;6194048;28;20269;-78
2023/04/17 00:34:01;;;;;;;10.20;8.47;;;;;;;9.89;73.84;102496.78;6201718;28;20240;-77
2023/04/17 00:37:27;;;;;;;13.73;9.73;;;;;;;9.84;74.05;102500.75;6212117;28;20642;-76
2023/04/17 00:40:47;;;;;;;10.23;8.13;;;;;;;9.81;73.73;102503.63;6223947;28;20231;-78
2023/04/17 00:44:09;;;;;;;10.07;8.97;;;;;;;9.83;74.43;102507.00;6216965;28;20549;-78
2023/04/17 00:47:30;;;;;;;11.60;8.00;;;;;;;9.80;74.24;102499.31;6234147;28;20250;-76
2023/04/17 00:50:54;;;;;;;9.27;8.17;;;;;;;9.81;74.06;102504.47;6208261;28;20323;-76
2023/04/17 00:54:17;;;;;;;10.20;7.50;;;;;;;9.84;74.36;102501.59;6234557;28;20232;-77
2023/04/17 00:57:39;;;;;;;10.37;8.90;;;;;;;9.85;73.73;102498.00;6239023;28;20318;-78
2023/04/17 01:01:00;;;;;;;11.40;10.10;;;;;;;9.84;74.27;102492.84;6227249;28;20716;-77
2023/04/17 01:04:21;;;;;;;10.77;7.53;;;;;;;9.85;74.21;102499.78;6221095;28;20243;-75
2023/04/17 01:07:46;;;;;;;8.67;7.70;;;;;;;9.83;74.80;102493.81;6229671;28;20228;-76
2023/04/17 01:11:08;;;;;;;12.73;8.00;;;;;;;9.83;74.06;102489.38;6226415;28;20236;-76
2023/04/17 01:14:29;;;;;;;9.70;7.60;;;;;;;9.79;74.45;102495.00;6208189;28;20263;-75
2023/04/17 01:17:52;;;;;;;10.80;8.83;;;;;;;9.76;74.66;102498.72;6229657;28;20251;-77
2023/04/17 01:21:13;;;;;;;11.40;9.63;;;;;;;9.75;74.81;102497.03;6233327;28;20618;-77
2023/04/17 01:24:35;;;;;;;11.87;8.90;;;;;;;9.73;74.55;102500.75;6212748;28;20644;-77
2023/04/17 01:27:56;;;;;;;13.90;8.40;;;;;;;9.73;74.41;102495.47;6239074;28;20578;-76
2023/04/17 01:31:18;;;;;;;15.17;8.93;;;;;;;9.65;74.63;102501.38;6212474;28;20233;-76
2023/04/17 01:34:39;;;;;;;10.97;7.93;;;;;;;9.65;74.63;102511.09;6211287;28;20252;-76
2023/04/17 01:38:00;;;;;;;10.50;9.40;;;;;;;9.67;74.46;102514.44;6215893;28;20319;-76
2023/04/17 01:41:22;;;;;;;11.77;8.70;;;;;;;9.63;74.50;102511.22;6214062;28;20228;-76
2023/04/17 01:44:44;;;;;;;9.70;8.70;;;;;;;9.65;74.50;102505.81;6204102;28;20237;-76
2023/04/17 01:48:06;;;;;;;12.40;9.83;;;;;;;9.59;75.00;102507.97;6204841;28;20645;-77
2023/04/17 01:51:27;;;;;;;10.50;9.43;;;;;;;9.58;74.73;102505.47;6218809;28;20709;-77
2023/04/17 01:54:48;;;;;;;15.10;9.80;;;;;;;9.58;74.34;102508.09;6232063;28;20273;-77
2023/04/17 01:58:10;;;;;;;13.00;10.20;;;;;;;9.47;75.35;102506.31;6226740;28;20237;-75
2023/04/17 02:01:31;;;;;;;12.77;10.57;;;;;;;9.51;74.88;102520.91;6235296;28;20232;-75
2023/04/17 02:04:52;;;;;;;11.67;10.13;;;;;;;9.51;74.95;102513.00;6219367;28;20522;-75
2023/04/17 02:08:19;;;;;;;11.73;9.37;;;;;;;9.49;75.29;102525.47;6212467;28;20688;-75
2023/04/17 02:11:40;;;;;;;16.60;11.43;;;;;;;9.49;74.92;102522.00;6210672;28;20607;-76
2023/04/17 02:15:02;;;;;;;16.07;10.60;;;;;;;9.43;75.36;102518.06;6231652;28;20609;-75
2023/04/17 02:18:26;;;;;;;11.50;9.77;;;;;;;9.48;74.95;102523.81;6229773;28;20572;-75
2023/04/17 02:21:47;;;;;;;15.60;10.47;;;;;;;9.44;75.08;102524.16;6236127;28;20310;-75
2023/04/17 02:25:08;;;;;;;13.50;9.83;;;;;;;9.40;74.80;102518.28;6206886;28;20225;-75
2023/04/17 02:28:29;;;;;;;13.60;10.50;;;;;;;9.37;75.61;102520.31;6227165;28;20720;-75
2023/04/17 02:31:54;;;;;;;11.20;9.90;;;;;;;9.24;76.22;102521.28;6221183;28;20242;-75
2023/04/17 02:35:15;;;;;;;12.80;10.57;;;;;;;9.31;75.97;102518.16;6222087;28;20224;-76
2023/04/17 02:38:38;;;;;;;9.73;8.60;;;;;;;9.31;76.32;102516.38;6212233;28;20601;-75
2023/04/17 02:42:00;;;;;;;15.53;10.97;;;;;;;9.32;76.56;102525.09;6211868;28;20236;-75
2023/04/17 02:45:22;;;;;;;13.53;8.40;;;;;;;9.34;76.42;102517.94;6210894;28;20236;-75
2023/04/17 02:48:44;;;;;;;10.77;9.23;;;;;;;9.33;76.13;102524.16;6206652;28;20498;-75
2023/04/17 02:52:05;;;;;;;11.90;10.60;;;;;;;9.37;76.05;102525.59;6226880;28;20239;-75
2023/04/17 02:55:26;;;;;;;13.33;10.53;;;;;;;9.30;76.53;102529.66;6229372;28;20566;-75
2023/04/17 02:58:47;;;;;;;12.77;9.50;;;;;;;9.33;76.29;102522.34;6216294;28;20224;-75
2023/04/17 03:02:08;;;;;;;11.50;9.83;;;;;;;9.37;76.02;102515.91;6222326;28;20259;-75
2023/04/17 03:05:30;;;;;;;17.27;11.73;;;;;;;9.38;76.41;102522.00;6222236;28;20605;-75
2023/04/17 03:08:53;;;;;;;14.47;11.33;;;;;;;9.37;76.78;102525.59;6212657;28;20622;-75
2023/04/17 03:12:15;;;;;;;16.33;10.43;;;;;;;9.37;76.74;102523.81;6207965;28;20225;-75
2023/04/17 03:15:36;;;;;;;11.37;9.97;;;;;;;9.39;76.73;102526.31;6229400;28;20240;-75
2023/04/17 03:18:58;;;;;;;19.70;11.50;;;;;;;9.32;77.11;102520.69;6205292;28;20233;-75
2023/04/17 03:22:20;;;;;;;13.07;10.77;;;;;;;9.30;77.30;102514.69;6207874;28;20281;-75
2023/04/17 03:25:42;;;;;;;14.97;11.60;;;;;;;9.29;77.42;102522.72;6220970;28;20232;-74
2023/04/17 03:29:03;;;;;;;12.03;8.87;;;;;;;9.30;76.82;102524.38;6202300;28;20260;-75
2023/04/17 03:32:24;;;;;;;16.50;12.13;;;;;;;9.23;77.35;102527.53;6227719;28;20299;-74
2023/04/17 03:35:48;;;;;;;14.43;10.27;;;;;;;9.20;77.58;102529.53;6218399;28;20252;-74
2023/04/17 03:39:11;;;;;;;12.97;10.00;;;;;;;9.21;77.73;102532.06;6232809;28;20240;-75
2023/04/17 03:42:32;;;;;;;14.63;10.03;;;;;;;9.24;77.69;102537.09;6223326;28;20607;-74
2023/04/17 03:45:55;;;;;;;24.40;19.47;;;;;;;9.26;77.24;102526.44;6212425;28;20273;-75
2023/04/17 03:49:17;;;;;;;25.33;22.73;;;;;;;9.22;78.10;102530.28;6212162;28;20261;-75
2023/04/17 03:52:38;;;;;;;14.93;13.10;;;;;;;9.21;77.90;102529.44;6228107;28;20228;-74
2023/04/17 03:56:01;;;;;;;13.13;9.10;;;;;;;9.19;78.40;102543.69;6224293;28;20335;-74
2023/04/17 03:59:27;;;;;;;12.40;11.13;;;;;;;9.16;78.48;102544.75;6216006;28;20552;-74
2023/04/17 04:02:48;;;;;;;12.43;10.20;;;;;;;9.14;78.55;102546.66;6213472;28;20694;-74
2023/04/17 04:06:13;;;;;;;31.97;25.00;;;;;;;9.15;79.79;102540.44;6218113;28;20243;-74
2023/04/17 04:09:34;;;;;;;22.50;17.60;;;;;;;9.17;79.54;102554.31;6222258;28;20232;-75
2023/04/17 04:12:58;;;;;;;16.40;12.47;;;;;;;9.13;80.18;102560.78;6221541;28;20251;-74
2023/04/17 04:16:22;;;;;;;27.97;22.47;;;;;;;9.12;80.24;102555.63;6227746;28;20231;-75
2023/04/17 04:19:45;;;;;;;16.00;12.43;;;;;;;9.08;80.49;102565.56;6221677;28;20221;-74
2023/04/17 04:23:06;;;;;;;13.07;11.53;;;;;;;9.15;80.97;102563.31;6210187;28;20717;-74
2023/04/17 04:26:27;;;;;;;13.80;11.20;;;;;;;9.16;80.76;102564.97;6207020;28;20232;-74
2023/04/17 04:29:51;;;;;;;14.07;11.00;;;;;;;9.15;80.66;102568.56;6205664;28;20245;-74
2023/04/17 04:33:14;;;;;;;14.23;12.20;;;;;;;9.13;81.18;102565.22;6206839;28;20606;-75
2023/04/17 04:36:48;;;;;;;13.93;10.73;;;;;;;9.12;81.39;102571.44;6224591;28;20632;-75
2023/04/17 04:40:16;;;;;;;17.83;11.83;;;;;;;9.13;81.27;102566.06;6212326;28;20504;-76
2023/04/17 04:43:38;;;;;;;14.30;12.50;;;;;;;9.10;81.83;102568.06;6202287;28;20941;-74
2023/04/17 04:47:02;;;;;;;17.97;12.13;;;;;;;9.17;81.14;102578.03;6241646;28;20247;-74
2023/04/17 04:50:23;;;;;;;16.77;11.73;;;;;;;9.14;81.36;102577.44;6229093;28;20307;-74
2023/04/17 04:53:44;;;;;;;12.93;10.67;;;;;;;9.17;81.22;102575.41;6234264;28;20339;-75
2023/04/17 04:57:08;;;;;;;16.73;11.63;;;;;;;9.19;81.44;102570.03;6227343;28;20263;-74
2023/04/17 05:00:30;;;;;;;17.73;14.17;;;;;;;9.17;81.52;102575.41;6198000;28;20650;-74
2023/04/17 05:03:54;;;;;;;16.37;14.07;;;;;;;9.25;81.77;102574.81;6200488;28;20244;-75
2023/04/17 05:07:20;;;;;;;11.73;10.47;;;;;;;9.29;80.85;102578.88;6208427;28;20238;-74
2023/04/17 05:10:42;;;;;;;18.23;14.40;;;;;;;9.30;81.17;102585.00;6208429;28;20240;-71
2023/04/17 05:14:03;;;;;;;16.10;14.03;;;;;;;9.34;81.04;102589.06;6190722;28;20229;-74
2023/04/17 05:17:32;;;;;;;19.37;15.70;;;;;;;9.42;81.00;102606.00;6212617;28;20237;-70
2023/04/17 05:20:57;;;;;;;14.63;12.63;;;;;;;9.51;80.21;102596.53;6210410;28;20232;-70
2023/04/17 05:24:27;;;;;;;12.47;10.80;;;;;;;9.52;80.38;102606.09;6214358;28;20237;-70
2023/04/17 05:27:48;;;;;;;15.40;12.27;;;;;;;9.59;80.71;102612.59;6209780;28;20549;-71
2023/04/17 05:31:11;;;;;;;19.53;13.10;;;;;;;9.64;80.32;102610.44;6224059;28;20271;-71
2023/04/17 05:34:37;;;;;;;14.63;12.27;;;;;;;9.79;79.68;102618.94;6238496;28;20256;-73
2023/04/17 05:37:59;;;;;;;32.47;24.77;;;;;;;9.83;79.88;102609.84;6214594;28;20228;-73
2023/04/17 05:41:20;;;;;;;25.87;21.80;;;;;;;9.85;79.38;102611.41;6219392;28;20259;-74
2023/04/17 05:44:41;;;;;;;18.40;15.07;;;;;;;9.82;79.66;102618.72;6228044;28;20274;-73
2023/04/17 05:48:03;;;;;;;28.23;15.27;;;;;;;9.87;79.62;102616.56;6210994;28;20263;-70
2023/04/17 05:51:23;;;;;;;21.03;13.63;;;;;;;9.91;79.99;102613.56;6216509;28;20236;-69
2023/04/17 05:54:46;;;;;;;20.50;17.43;;;;;;;9.98;79.32;102615.69;6200750;28;20228;-72
2023/04/17 05:58:07;;;;;;;21.47;13.90;;;;;;;10.02;79.20;102611.88;6209490;28;20946;-73
2023/04/17 06:01:31;;;;;;;15.57;12.83;;;;;;;10.07;79.17;102615.00;6210745;28;20229;-75
2023/04/17 06:04:52;;;;;;;16.03;13.03;;;;;;;10.17;78.49;102618.56;6190227;28;20256;-73
2023/04/17 06:08:16;;;;;;;14.97;12.33;;;;;;;10.26;78.09;102620.50;6210608;28;21922;-72
2023/04/17 06:11:38;;;;;;;18.40;13.53;;;;;;;10.35;77.18;102625.06;6211288;28;20602;-73
2023/04/17 06:14:59;;;;;;;16.37;11.53;;;;;;;10.45;76.80;102633.06;6228430;28;20244;-74
2023/04/17 06:18:21;;;;;;;17.47;14.77;;;;;;;10.54;76.35;102635.81;6228227;28;20239;-70
2023/04/17 06:21:42;;;;;;;14.53;12.27;;;;;;;10.62;75.68;102637.81;6189304;28;20237;-73
2023/04/17 06:25:03;;;;;;;16.33;12.40;;;;;;;10.65;75.61;102631.44;6211101;28;20568;-71
2023/04/17 06:28:26;;;;;;;17.07;13.33;;;;;;;10.68;75.46;102639.94;6203178;28;20233;-70
2023/04/17 06:31:49;;;;;;;15.37;12.20;;;;;;;10.91;75.02;102635.44;6202649;28;20474;-69
2023/04/17 06:35:13;;;;;;;18.33;13.90;;;;;;;11.28;73.56;102639.34;6240033;28;20232;-70
2023/04/17 06:38:46;;;;;;;17.23;14.07;;;;;;;11.47;71.91;102635.13;6217819;28;20237;-71
2023/04/17 06:42:09;;;;;;;15.47;13.87;;;;;;;11.44;71.15;102640.69;6223391;28;20226;-70
2023/04/17 06:45:35;;;;;;;18.13;13.97;;;;;;;11.55;70.64;102643.22;6196913;28;20680;-70
2023/04/17 06:49:01;;;;;;;16.40;12.97;;;;;;;11.71;70.07;102638.34;6184908;28;20257;-71
2023/04/17 06:52:22;;;;;;;15.40;12.70;;;;;;;11.88;68.58;102635.09;6237608;28;20219;-71
2023/04/17 06:55:43;;;;;;;17.27;14.27;;;;;;;11.93;68.56;102642.63;6228745;28;20787;-69
2023/04/17 06:59:05;;;;;;;13.97;11.43;;;;;;;12.04;68.06;102646.97;6214843;28;20251;-70
2023/04/17 07:02:27;;;;;;;15.70;12.00;;;;;;;12.08;66.85;102651.03;6241029;28;20232;-68
2023/04/17 07:05:48;;;;;;;19.93;13.60;;;;;;;12.02;65.90;102652.41;6212392;28;20224;-72
2023/04/17 07:09:09;;;;;;;16.00;12.90;;;;;;;11.97;66.37;102660.75;6246178;28;20240;-73
2023/04/17 07:12:31;;;;;;;13.40;10.03;;;;;;;11.92;65.89;102654.19;6225333;28;20228;-72
2023/04/17 07:15:54;;;;;;;14.47;10.70;;;;;;;11.95;66.20;102657.41;6221388;28;20240;-73
2023/04/17 07:19:16;;;;;;;12.97;10.50;;;;;;;12.07;65.52;102657.31;6241025;28;20237;-72
2023/04/17 07:22:36;;;;;;;9.80;8.00;;;;;;;12.07;65.05;102662.59;6229133;28;20563;-72
2023/04/17 07:25:57;;;;;;;12.80;11.30;;;;;;;12.21;64.92;102672.81;6231739;28;20244;-72
2023/04/17 07:29:18;;;;;;;13.10;10.30;;;;;;;12.22;64.40;102677.97;6202812;28;20224;-71
2023/04/17 07:32:39;;;;;;;12.27;11.03;;;;;;;12.21;64.22;102673.66;6208763;28;20614;-72
2023/04/17 07:36:01;;;;;;;13.33;10.10;;;;;;;12.35;64.49;102668.97;6201182;28;20241;-70
2023/04/17 07:39:22;;;;;;;13.77;10.10;;;;;;;12.45;63.69;102675.13;6235402;28;20244;-71
2023/04/17 07:42:43;;;;;;;11.23;9.60;;;;;;;12.48;63.83;102678.34;6237419;28;20247;-72
2023/04/17 07:46:04;;;;;;;13.40;9.70;;;;;;;12.55;64.23;102679.47;6225227;28;20232;-70
2023/04/17 07:49:24;;;;;;;12.93;10.77;;;;;;;12.71;63.52;102678.94;6247350;28;20231;-71
2023/04/17 07:52:47;;;;;;;14.07;10.53;;;;;;;12.89;62.70;102681.72;6231162;28;20231;-72
2023/04/17 07:56:08;;;;;;;12.87;11.07;;;;;;;12.93;62.09;102677.84;6232399;28;21684;-71
2023/04/17 07:59:31;;;;;;;13.13;11.77;;;;;;;13.00;61.84;102681.63;6237722;28;20606;-71
2023/04/17 08:02:52;;;;;;;13.63;11.73;;;;;;;12.98;61.47;102678.25;6232320;28;20235;-70
2023/04/17 08:06:15;;;;;;;10.10;8.93;;;;;;;13.06;61.11;102677.56;6227335;28;20327;-71
2023/04/17 08:09:37;;;;;;;10.07;8.93;;;;;;;13.13;60.38;102668.06;6235611;28;20226;-69
2023/04/17 08:12:58;;;;;;;8.97;8.07;;;;;;;13.22;60.32;102676.06;6230177;28;20235;-70
2023/04/17 08:16:19;;;;;;;9.30;7.73;;;;;;;13.41;59.73;102669.88;6228948;28;20227;-70
2023/04/17 08:19:40;;;;;;;8.70;6.53;;;;;;;13.33;58.57;102670.59;6227043;28;20644;-71
2023/04/17 08:23:00;;;;;;;9.13;8.23;;;;;;;13.49;58.46;102677.97;6236490;28;20547;-72
2023/04/17 08:26:23;;;;;;;12.07;7.07;;;;;;;13.75;58.52;102672.91;6221711;28;20224;-72
2023/04/17 08:29:44;;;;;;;11.10;9.80;;;;;;;13.82;57.22;102679.28;6238578;28;20232;-69
2023/04/17 08:33:05;;;;;;;11.57;9.23;;;;;;;13.95;56.24;102676.31;6227526;28;20244;-74
2023/04/17 08:36:26;;;;;;;10.97;8.53;;;;;;;13.86;55.37;102675.34;6229731;28;20235;-72
2023/04/17 08:39:51;;;;;;;10.33;7.23;;;;;;;13.98;55.73;102674.22;6241484;28;20868;-71
2023/04/17 08:43:17;;;;;;;5.93;5.33;;;;;;;14.21;55.00;102676.50;6231539;28;20232;-70
2023/04/17 08:46:39;;;;;;;8.70;7.67;;;;;;;14.25;54.79;102676.03;6204432;28;20223;-72
2023/04/17 08:50:10;;;;;;;8.73;7.43;;;;;;;14.37;54.21;102671.34;6211496;28;20233;-71
2023/04/17 08:53:32;;;;;;;8.77;7.97;;;;;;;14.30;53.84;102678.25;6223254;28;20243;-69
2023/04/17 08:56:53;;;;;;;6.50;5.20;;;;;;;14.31;52.30;102672.78;6219851;28;20867;-69
2023/04/17 09:00:24;;;;;;;8.73;6.23;;;;;;;14.36;51.16;102688.28;6239060;28;20229;-71
2023/04/17 09:03:47;;;;;;;6.77;5.00;;;;;;;14.45;49.29;102687.44;6225744;28;20228;-69
2023/04/17 09:07:09;;;;;;;7.87;4.67;;;;;;;14.49;48.09;102672.84;6213446;28;20225;-74
2023/04/17 09:10:35;;;;;;;5.57;5.07;;;;;;;14.56;48.40;102675.75;6216655;28;20319;-76
2023/04/17 09:13:56;;;;;;;7.50;4.87;;;;;;;14.73;49.24;102674.91;6239104;28;20590;-69
2023/04/17 09:17:20;;;;;;;8.00;5.33;;;;;;;14.61;47.60;102679.63;6217070;28;20294;-71
2023/04/17 09:20:49;;;;;;;8.50;6.03;;;;;;;14.61;47.85;102679.63;6232537;28;20229;-69
2023/04/17 09:24:10;;;;;;;8.40;5.70;;;;;;;14.76;48.51;102681.75;6242852;28;20228;-69
2023/04/17 09:27:31;;;;;;;6.33;4.57;;;;;;;14.73;46.29;102690.03;6234831;28;20235;-73
2023/04/17 09:30:52;;;;;;;3.27;2.97;;;;;;;14.90;45.92;102687.41;6216307;28;20239;-72
2023/04/17 09:34:15;;;;;;;9.20;6.00;;;;;;;14.96;46.23;102693.91;6197294;28;20230;-71
2023/04/17 09:37:49;;;;;;;5.87;4.63;;;;;;;15.15;47.25;102688.44;6219406;28;20257;-72
2023/04/17 09:41:22;;;;;;;6.73;6.03;;;;;;;14.99;46.27;102696.28;6223899;28;20228;-71
2023/04/17 09:44:43;;;;;;;6.17;4.43;;;;;;;14.96;45.91;102692.09;6241326;28;20739;-71
2023/04/17 09:48:06;;;;;;;4.63;4.23;;;;;;;15.16;46.55;102698.09;6236945;28;20232;-70
2023/04/17 09:51:30;;;;;;;4.40;4.07;;;;;;;15.39;45.31;102691.28;6232363;28;20232;-71
2023/04/17 09:54:52;;;;;;;8.50;4.93;;;;;;;15.42;45.25;102691.97;6218143;28;20228;-71
2023/04/17 09:58:13;;;;;;;7.43;4.20;;;;;;;15.55;45.34;102695.09;6239774;28;20224;-71
2023/04/17 10:01:36;;;;;;;8.00;6.07;;;;;;;15.79;45.18;102691.78;6203532;28;20609;-71
2023/04/17 10:04:57;;;;;;;6.47;4.20;;;;;;;15.73;44.69;102695.91;6214286;28;20241;-71
2023/04/17 10:08:19;;;;;;;6.40;5.30;;;;;;;15.78;45.08;102690.94;6239880;28;20233;-71
2023/04/17 10:11:43;;;;;;;6.10;5.40;;;;;;;15.52;45.73;102690.06;6210349;28;20228;-70
2023/04/17 10:15:07;;;;;;;7.27;5.43;;;;;;;16.04;45.54;102686.41;6214343;28;20283;-72
2023/04/17 10:18:27;;;;;;;10.63;5.93;;;;;;;16.27;45.32;102685.84;6229706;28;20232;-72
2023/04/17 10:22:27;;;;;;;5.70;5.20;;;;;;;16.55;44.42;102689.09;6220205;28;20243;-72
2023/04/17 10:26:10;;;;;;;6.47;3.83;;;;;;;16.78;41.97;102686.69;6226958;28;20228;-71
2023/04/17 10:29:52;;;;;;;4.77;4.23;;;;;;;16.92;41.15;102697.56;6232252;28;20228;-71
2023/04/17 10:33:23;;;;;;;8.07;5.90;;;;;;;16.51;41.70;102693.09;6228654;28;20248;-71
2023/04/17 10:36:48;;;;;;;9.37;5.90;;;;;;;16.46;42.30;102693.59;6221248;28;20227;-72
2023/04/17 10:40:10;;;;;;;8.87;8.00;;;;;;;16.81;42.41;102697.03;6232317;28;20527;-70
2023/04/17 10:43:33;;;;;;;7.93;6.33;;;;;;;17.00;40.47;102691.38;6241819;28;20263;-71
2023/04/17 10:46:54;;;;;;;5.77;4.37;;;;;;;17.11;40.73;102696.41;6231998;28;20263;-71
2023/04/17 10:50:16;;;;;;;7.00;4.87;;;;;;;17.31;40.89;102692.41;6245538;28;20243;-71
2023/04/17 10:53:39;;;;;;;7.70;5.20;;;;;;;16.88;41.88;102687.38;6213711;28;20232;-71
2023/04/17 10:57:03;;;;;;;6.03;5.17;;;;;;;17.03;41.75;102702.56;6234616;28;20259;-71
2023/04/17 11:00:32;;;;;;;9.45;6.45;;;;;;;17.37;41.66;102707.75;6183961;28;20234;-70
2023/04/17 11:03:53;;;;;;;7.38;6.22;;;;;;;17.74;41.55;102691.19;6195194;28;20662;-71
2023/04/17 11:07:16;;;;;;;6.68;5.70;;;;;;;17.04;41.09;102695.38;6211879;28;20616;-68
2023/04/17 11:10:37;;;;;;;6.60;6.00;;;;;;;17.32;39.51;102688.72;6207410;28;20611;-71
2023/04/17 11:13:58;;;;;;;5.77;5.13;;;;;;;17.63;37.75;102694.19;6200184;28;20282;-71
2023/04/17 11:17:22;;;;;;;9.23;5.32;;;;;;;18.20;35.50;102688.72;6214684;28;20228;-71
2023/04/17 11:20:44;;;;;;;4.43;4.00;;;;;;;18.50;34.62;102691.59;6221678;28;20229;-72
2023/04/17 11:24:05;;;;;;;11.90;7.53;;;;;;;18.34;32.89;102696.00;6215373;28;20229;-71
2023/04/17 11:27:27;;;;;;;9.02;6.15;;;;;;;18.15;31.52;102700.91;6222211;28;20625;-74
2023/04/17 11:30:49;;;;;;;15.73;4.15;;;;;;;17.98;30.65;102697.47;6221484;28;20228;-73
2023/04/17 11:34:11;;;;;;;8.13;3.70;;;;;;;18.47;29.67;102700.78;6216340;28;20227;-74
2023/04/17 11:37:32;;;;;;;3.72;3.30;;;;;;;18.96;29.26;102703.19;6215971;28;20593;-72
2023/04/17 11:40:57;;;;;;;4.40;3.33;;;;;;;20.20;27.91;102697.31;6189572;28;20229;-71
2023/04/17 11:44:19;;;;;;;6.72;3.20;;;;;;;22.29;24.02;102694.00;6201603;28;20241;-71
2023/04/17 11:47:43;;;;;;;4.80;3.67;;;;;;;26.23;19.08;102697.19;6213895;28;20228;-71
2023/04/17 11:51:06;;;;;;;7.20;4.40;;;;;;;28.32;14.68;102698.50;6204440;28;20236;-72
2023/04/17 11:54:27;;;;;;;6.60;3.90;;;;;;;29.39;14.82;102690.28;6230465;28;20248;-71
2023/04/17 11:57:51;;;;;;;5.57;4.05;;;;;;;28.84;13.35;102703.84;6220671;28;20236;-71
2023/04/17 12:01:12;;;;;;;2.55;2.35;;;;;;;28.31;13.90;102698.75;6201939;28;20608;-70
2023/04/17 12:04:34;;;;;;;4.15;3.70;;;;;;;29.67;12.94;102696.69;6232471;28;20229;-72
2023/04/17 12:08:01;;;;;;;6.10;3.58;;;;;;;30.02;13.14;102696.38;6202659;28;20244;-71
2023/04/17 12:11:29;;;;;;;6.50;4.38;;;;;;;30.07;13.00;102707.31;6223064;28;20235;-70
2023/04/17 12:14:50;;;;;;;4.88;4.25;;;;;;;30.53;12.61;102695.03;6224859;28;20589;-72
2023/04/17 12:18:14;;;;;;;5.85;4.15;;;;;;;29.87;13.27;102705.13;6205150;28;20230;-72
2023/04/17 12:21:34;;;;;;;5.97;5.22;;;;;;;29.27;13.83;102706.72;6218428;28;20836;-74
2023/04/17 12:24:57;;;;;;;8.73;7.50;;;;;;;29.49;13.89;102717.69;6223810;28;20370;-71
2023/04/17 12:28:17;;;;;;;6.30;5.68;;;;;;;29.07;14.09;102706.41;6223054;28;20240;-72
2023/04/17 12:31:38;;;;;;;4.88;4.47;;;;;;;30.12;14.39;102716.38;6207472;28;20225;-69
2023/04/17 12:34:59;;;;;;;7.40;5.20;;;;;;;28.54;13.72;102706.78;6226635;28;20253;-69
2023/04/17 12:38:20;;;;;;;4.88;4.38;;;;;;;27.34;14.15;102715.59;6201409;28;20554;-70
2023/04/17 12:41:42;;;;;;;7.70;5.35;;;;;;;27.76;13.78;102723.66;6210013;28;20228;-74
2023/04/17 12:45:05;;;;;;;5.18;4.68;;;;;;;27.51;13.62;102721.97;6217558;28;20590;-69
2023/04/17 12:48:26;;;;;;;8.35;5.35;;;;;;;28.88;12.88;102719.41;6222478;28;20314;-71
2023/04/17 12:51:47;;;;;;;5.88;5.28;;;;;;;28.99;12.59;102717.69;6206011;28;20243;-72
2023/04/17 12:55:09;;;;;;;7.28;6.45;;;;;;;29.73;12.08;102714.75;6219840;28;20233;-72
2023/04/17 12:58:32;;;;;;;8.98;5.55;;;;;;;31.40;12.00;102708.38;6222842;28;20226;-70
2023/04/17 13:01:53;;;;;;;4.97;4.53;;;;;;;29.61;11.17;102709.41;6217682;28;20613;-70
2023/04/17 13:05:13;;;;;;;4.78;4.13;;;;;;;28.28;11.80;102726.38;6221479;28;20229;-70
2023/04/17 13:08:34;;;;;;;5.30;4.53;;;;;;;28.64;11.27;102725.19;6201271;28;20237;-70
2023/04/17 13:11:56;;;;;;;6.35;4.90;;;;;;;28.81;11.89;102726.06;6218493;28;20473;-70
2023/04/17 13:15:19;;;;;;;4.10;3.80;;;;;;;29.62;10.78;102723.84;6211890;28;20264;-70
2023/04/17 13:18:40;;;;;;;5.00;4.43;;;;;;;29.14;10.57;102733.44;6219353;28;20602;-71
2023/04/17 13:22:01;;;;;;;5.72;5.15;;;;;;;29.79;10.69;102720.03;6210513;28;20237;-71
2023/04/17 13:25:22;;;;;;;3.38;3.05;;;;;;;28.24;12.25;102721.44;6193996;28;20377;-71
2023/04/17 13:28:43;;;;;;;5.78;4.15;;;;;;;28.49;12.16;102733.88;6192474;28;20428;-74
2023/04/17 13:32:05;;;;;;;6.25;4.05;;;;;;;26.75;12.82;102730.88;6185686;28;20240;-70
2023/04/17 13:35:26;;;;;;;4.43;4.03;;;;;;;27.38;12.24;102721.38;6197732;28;20662;-71
2023/04/17 13:38:47;;;;;;;5.43;4.30;;;;;;;27.28;12.97;102727.38;6183561;28;20225;-70
2023/04/17 13:42:09;;;;;;;6.65;4.53;;;;;;;27.57;12.82;102725.59;6189642;28;20267;-71
2023/04/17 13:45:30;;;;;;;8.20;5.25;;;;;;;28.49;12.38;102723.00;6197470;28;20355;-71
2023/04/17 13:48:52;;;;;;;5.65;5.00;;;;;;;29.21;12.63;102712.31;6209719;28;20229;-71
2023/04/17 13:52:13;;;;;;;3.30;2.88;;;;;;;27.48;13.88;102727.03;6211609;28;20232;-72
2023/04/17 13:55:34;;;;;;;4.00;3.70;;;;;;;26.48;14.21;102711.47;6209456;28;20248;-70
2023/04/17 13:58:56;;;;;;;4.53;4.13;;;;;;;25.18;15.78;102726.13;6191701;28;20510;-72
2023/04/17 14:02:16;;;;;;;4.13;3.22;;;;;;;23.71;17.90;102713.50;6216600;28;20216;-70
2023/04/17 14:05:39;;;;;;;4.95;3.85;;;;;;;23.19;19.15;102720.53;6221176;28;20518;-70
2023/04/17 14:09:00;;;;;;;5.45;3.83;;;;;;;23.50;19.12;102706.41;6185882;28;20280;-71
2023/04/17 14:12:22;;;;;;;4.53;3.78;;;;;;;22.78;19.73;102717.16;6193060;28;20228;-72
2023/04/17 14:15:43;;;;;;;3.88;3.53;;;;;;;22.12;21.33;102724.97;6180057;28;20241;-73
2023/04/17 14:19:04;;;;;;;3.97;3.35;;;;;;;21.87;22.02;102708.44;6185807;28;20233;-72
2023/04/17 14:22:26;;;;;;;4.43;3.42;;;;;;;21.78;22.69;102705.06;6212493;28;20296;-72
2023/04/17 14:25:47;;;;;;;4.93;4.32;;;;;;;21.46;23.25;102711.06;6205200;28;20237;-71
2023/04/17 14:29:09;;;;;;;3.80;3.33;;;;;;;21.15;23.70;102704.16;6212584;28;20237;-74
2023/04/17 14:32:29;;;;;;;6.32;3.40;;;;;;;20.80;24.45;102711.25;6218676;28;20229;-69
2023/04/17 14:35:52;;;;;;;5.30;4.80;;;;;;;20.21;25.19;102701.66;6187253;28;20849;-73
2023/04/17 14:39:14;;;;;;;9.20;7.05;;;;;;;20.09;24.95;102702.13;6184567;28;20658;-73
2023/04/17 14:42:35;;;;;;;5.13;4.63;;;;;;;19.52;25.76;102698.38;6234767;28;20232;-73
2023/04/17 14:45:56;;;;;;;3.30;3.10;;;;;;;19.16;26.79;102703.53;6215494;28;20232;-73
2023/04/17 14:49:17;;;;;;;7.85;4.82;;;;;;;19.78;26.03;102701.47;6231396;28;21121;-72
2023/04/17 14:52:38;;;;;;;6.40;3.92;;;;;;;19.87;26.32;102708.44;6226396;28;20244;-73
2023/04/17 14:56:00;;;;;;;14.10;4.97;;;;;;;19.80;26.36;102702.13;6195878;28;20287;-72
2023/04/17 14:59:21;;;;;;;4.03;3.70;;;;;;;19.47;27.05;102707.75;6214767;28;20238;-72
2023/04/17 15:02:42;;;;;;;6.47;3.72;;;;;;;18.75;28.42;102707.31;6221650;28;20658;-73
2023/04/17 15:06:04;;;;;;;4.43;3.58;;;;;;;18.96;29.17;102704.03;6210541;28;20240;-73
2023/04/17 15:09:40;;;;;;;4.10;3.67;;;;;;;19.15;28.74;102720.63;6215161;27;20836;-74
2023/04/17 15:13:01;;;;;;;5.80;4.00;;;;;;;18.82;28.76;102723.50;6227465;28;20231;-73
2023/04/17 15:16:21;;;;;;;4.20;3.90;;;;;;;19.00;29.13;102716.03;6233147;28;20321;-72
2023/04/17 15:19:42;;;;;;;4.53;4.07;;;;;;;19.14;28.85;102711.75;6260332;28;20239;-73
2023/04/17 15:23:03;;;;;;;3.50;3.20;;;;;;;18.70;29.49;102720.41;6245148;28;22098;-73
2023/04/17 15:26:28;;;;;;;9.43;4.15;;;;;;;18.45;30.69;102708.97;6235581;28;20226;-73
2023/04/17 15:29:49;;;;;;;10.75;5.15;;;;;;;18.62;30.45;102717.78;6261258;28;20232;-72
2023/04/17 15:33:11;;;;;;;4.88;3.90;;;;;;;19.02;29.64;102719.34;6263213;28;20618;-74
2023/04/17 15:36:32;;;;;;;6.00;4.38;;;;;;;18.68;29.73;102719.75;6237133;28;20247;-74